createdAt,value
2017-11-13T00:00:16.508Z,95818.39
2017-11-13T00:02:45.395Z,95835.73
2017-11-13T00:05:14.538Z,95846.09
2017-11-13T00:07:43.555Z,95850.03
2017-11-13T00:10:12.327Z,95858.31
2017-11-13T00:12:42.807Z,95868.48
2017-11-13T00:15:12.189Z,95877.56
2017-11-13T00:17:41.072Z,95868.52
2017-11-13T00:20:10.873Z,95882.76
2017-11-13T00:22:39.873Z,95876.95
2017-11-13T00:25:09.432Z,95879.38
2017-11-13T00:27:39.001Z,95883.81
2017-11-13T00:30:08.102Z,95878.61
2017-11-13T00:32:37.144Z,95873.36
2017-11-13T00:35:06.011Z,95893.16
2017-11-13T00:37:34.889Z,95890.11
2017-11-13T00:40:04.050Z,95881.75
2017-11-13T00:42:32.937Z,95899.16
2017-11-13T00:45:02.734Z,95886.59
2017-11-13T00:47:31.442Z,95894.16
2017-11-13T00:50:00.952Z,95885.29
2017-11-13T00:52:29.919Z,95882.89
2017-11-13T00:54:59.705Z,95873.92
2017-11-13T00:57:28.592Z,95878.44
2017-11-13T00:59:57.692Z,95875.40
2017-11-13T01:02:26.528Z,95870.56
2017-11-13T01:04:56.642Z,95868.02
2017-11-13T01:07:25.780Z,95863.06
2017-11-13T01:09:54.511Z,95853.02
2017-11-13T01:12:23.454Z,95855.88
2017-11-13T01:14:52.635Z,95858.59
2017-11-13T01:17:22.860Z,95854.64
2017-11-13T01:19:52.925Z,95870.84
2017-11-13T01:22:22.765Z,95876.86
2017-11-13T01:24:52.674Z,95874.78
2017-11-13T01:27:21.710Z,95889.58
2017-11-13T01:29:50.688Z,95887.91
2017-11-13T01:32:19.661Z,95897.86
2017-11-13T01:34:48.527Z,95889.53
2017-11-13T01:37:18.228Z,95898.25
2017-11-13T01:39:47.239Z,95900.48
2017-11-13T01:42:16.915Z,95906.37
2017-11-13T01:44:45.749Z,95911.80
2017-11-13T01:47:15.408Z,95904.96
2017-11-13T01:49:44.351Z,95900.71
2017-11-13T01:52:13.204Z,95910.56
2017-11-13T01:54:42.166Z,95925.08
2017-11-13T01:57:11.057Z,95936.30
2017-11-13T01:59:39.837Z,95916.72
2017-11-13T02:02:08.540Z,95917.48
2017-11-13T02:04:37.311Z,95921.55
2017-11-13T02:07:06.188Z,95926.41
2017-11-13T02:09:35.111Z,95930.73
2017-11-13T02:12:04.714Z,95940.86
2017-11-13T02:14:33.463Z,95929.91
2017-11-13T02:17:02.280Z,95953.47
2017-11-13T02:19:31.166Z,95939.83
2017-11-13T02:21:59.908Z,95945.69
2017-11-13T02:24:29.631Z,95943.20
2017-11-13T02:26:59.285Z,95946.50
2017-11-13T02:29:28.312Z,95951.45
2017-11-13T02:31:57.196Z,95964.49
2017-11-13T02:34:26.058Z,95960.14
2017-11-13T02:36:55.801Z,95962.22
2017-11-13T02:39:24.758Z,95959.23
2017-11-13T02:41:53.813Z,95953.20
2017-11-13T02:44:23.238Z,95947.92
2017-11-13T02:46:54.804Z,95958.32
2017-11-13T02:49:24.390Z,95949.13
2017-11-13T02:51:53.588Z,95946.65
2017-11-13T02:54:24.156Z,95943.82
2017-11-13T02:56:53.888Z,95940.38
2017-11-13T02:59:24.108Z,95933.55
2017-11-13T03:01:53.990Z,95933.39
2017-11-13T03:04:24.128Z,95932.03
2017-11-13T03:06:54.991Z,95932.24
2017-11-13T03:09:23.819Z,95926.99
2017-11-13T03:11:53.021Z,95925.26
2017-11-13T03:14:22.646Z,95927.62
2017-11-13T03:16:51.866Z,95930.20
2017-11-13T03:19:20.980Z,95926.52
2017-11-13T03:21:49.841Z,95943.47
2017-11-13T03:24:18.594Z,95955.87
2017-11-13T03:26:48.149Z,95952.45
2017-11-13T03:29:17.731Z,95963.72
2017-11-13T03:31:46.420Z,95953.01
2017-11-13T03:34:16.370Z,95970.05
2017-11-13T03:36:45.467Z,95966.52
2017-11-13T03:39:15.037Z,95973.16
2017-11-13T03:41:44.874Z,95967.84
2017-11-13T03:44:14.165Z,95964.61
2017-11-13T03:46:43.178Z,95970.97
2017-11-13T03:49:12.617Z,95973.11
2017-11-13T03:51:41.546Z,95974.52
2017-11-13T03:54:10.665Z,95976.49
2017-11-13T03:56:39.424Z,95986.05
2017-11-13T03:59:08.165Z,95991.30
2017-11-13T04:01:37.047Z,96004.39
2017-11-13T04:04:06.215Z,96000.09
2017-11-13T04:06:35.558Z,96012.80
2017-11-13T04:09:06.940Z,96009.16
2017-11-13T04:11:35.977Z,96005.77
2017-11-13T04:14:05.533Z,96015.81
2017-11-13T04:16:35.453Z,96021.31
2017-11-13T04:19:04.400Z,96024.34
2017-11-13T04:21:33.232Z,96028.66
2017-11-13T04:24:01.997Z,96029.51
2017-11-13T04:26:31.677Z,96035.62
2017-11-13T04:29:00.491Z,96040.28
2017-11-13T04:31:29.408Z,96041.39
2017-11-13T04:33:58.162Z,96044.43
2017-11-13T04:36:27.090Z,96047.06
2017-11-13T04:38:55.993Z,96053.14
2017-11-13T04:41:26.542Z,96044.64
2017-11-13T04:43:56.005Z,96045.73
2017-11-13T04:46:26.055Z,96044.06
2017-11-13T04:48:55.845Z,96048.69
2017-11-13T04:51:26.203Z,96052.33
2017-11-13T04:53:56.995Z,96060.21
2017-11-13T04:56:27.361Z,96049.20
2017-11-13T04:59:01.526Z,96052.79
2017-11-13T05:01:31.078Z,96055.66
2017-11-13T05:04:01.336Z,96055.75
2017-11-13T05:06:30.976Z,96054.02
2017-11-13T05:08:59.852Z,96061.04
2017-11-13T05:11:28.989Z,96064.30
2017-11-13T05:13:58.204Z,96065.39
2017-11-13T05:16:27.071Z,96066.57
2017-11-13T05:18:56.339Z,96080.02
2017-11-13T05:21:26.439Z,96072.95
2017-11-13T05:23:56.770Z,96092.11
2017-11-13T05:26:26.385Z,96082.31
2017-11-13T05:28:56.590Z,96090.52
2017-11-13T05:31:26.364Z,96105.20
2017-11-13T05:33:55.192Z,96113.42
2017-11-13T05:36:24.181Z,96119.31
2017-11-13T05:38:53.514Z,96110.61
2017-11-13T05:41:23.175Z,96104.47
2017-11-13T05:43:52.204Z,96106.81
2017-11-13T05:46:21.693Z,96100.63
2017-11-13T05:48:50.628Z,96108.10
2017-11-13T05:51:20.976Z,96119.38
2017-11-13T05:53:51.285Z,96123.81
2017-11-13T05:56:20.275Z,96133.41
2017-11-13T05:58:49.815Z,96135.13
2017-11-13T06:01:19.545Z,96131.23
2017-11-13T06:03:49.750Z,96134.45
2017-11-13T06:06:18.827Z,96138.49
2017-11-13T06:08:47.939Z,96145.48
2017-11-13T06:11:17.269Z,96148.77
2017-11-13T06:13:47.727Z,96170.62
2017-11-13T06:16:16.692Z,96170.73
2017-11-13T06:18:46.644Z,96168.66
2017-11-13T06:21:16.198Z,96181.38
2017-11-13T06:23:45.488Z,96192.34
2017-11-13T06:26:15.163Z,96192.66
2017-11-13T06:28:44.086Z,96193.00
2017-11-13T06:31:13.971Z,96191.26
2017-11-13T06:33:42.850Z,96198.16
2017-11-13T06:36:12.226Z,96213.84
2017-11-13T06:38:41.821Z,96204.62
2017-11-13T06:41:11.628Z,96208.28
2017-11-13T06:43:42.053Z,96203.25
2017-11-13T06:46:11.081Z,96218.97
2017-11-13T06:48:39.986Z,96214.25
2017-11-13T06:51:09.652Z,96219.29
2017-11-13T06:53:38.812Z,96217.54
2017-11-13T06:56:08.678Z,96205.57
2017-11-13T06:58:38.575Z,96200.19
2017-11-13T07:01:08.068Z,96194.52
2017-11-13T07:03:36.875Z,96201.93
2017-11-13T07:06:05.929Z,96187.53
2017-11-13T07:08:35.061Z,96190.37
2017-11-13T07:11:03.834Z,96202.66
2017-11-13T07:13:33.229Z,96210.44
2017-11-13T07:16:02.963Z,96208.82
2017-11-13T07:18:32.190Z,96204.89
2017-11-13T07:21:01.833Z,96214.37
2017-11-13T07:23:31.055Z,96221.52
2017-11-13T07:26:00.250Z,96210.50
2017-11-13T07:28:29.615Z,96215.64
2017-11-13T07:30:59.630Z,96210.30
2017-11-13T07:33:30.817Z,96212.79
2017-11-13T07:36:00.425Z,96229.20
2017-11-13T07:38:29.912Z,96231.17
2017-11-13T07:41:00.471Z,96225.02
2017-11-13T07:43:30.216Z,96231.38
2017-11-13T07:46:01.435Z,96244.58
2017-11-13T07:48:31.756Z,96234.25
2017-11-13T07:51:02.511Z,96243.63
2017-11-13T07:53:31.809Z,96242.95
2017-11-13T07:56:00.666Z,96252.22
2017-11-13T07:58:31.767Z,96253.07
2017-11-13T08:01:01.003Z,96256.06
2017-11-13T08:03:31.514Z,96270.64
2017-11-13T08:06:01.099Z,96265.77
2017-11-13T08:08:31.125Z,96277.83
2017-11-13T08:11:01.263Z,96287.19
2017-11-13T08:13:31.194Z,96275.92
2017-11-13T08:16:01.087Z,96293.50
2017-11-13T08:18:31.241Z,96304.64
2017-11-13T08:21:01.288Z,96318.33
2017-11-13T08:23:32.213Z,96334.66
2017-11-13T08:26:01.378Z,96321.45
2017-11-13T08:28:31.748Z,96326.48
2017-11-13T08:31:01.968Z,96333.50
2017-11-13T08:33:31.811Z,96330.22
2017-11-13T08:36:02.016Z,96329.41
2017-11-13T08:38:32.041Z,96339.80
2017-11-13T08:41:03.312Z,96340.38
2017-11-13T08:43:32.507Z,96337.87
2017-11-13T08:46:02.218Z,96332.34
2017-11-13T08:48:32.376Z,96326.48
2017-11-13T08:51:02.686Z,96343.30
2017-11-13T08:53:32.178Z,96343.44
2017-11-13T08:56:01.996Z,96343.95
2017-11-13T08:58:32.072Z,96349.39
2017-11-13T09:01:02.945Z,96355.62
2017-11-13T09:03:32.061Z,96356.02
2017-11-13T09:06:02.238Z,96361.19
2017-11-13T09:08:33.311Z,96365.78
2017-11-13T09:11:02.379Z,96369.61
2017-11-13T09:13:33.099Z,96376.55
2017-11-13T09:16:02.554Z,96381.33
2017-11-13T09:18:32.820Z,96375.38
2017-11-13T09:21:02.711Z,96377.14
2017-11-13T09:23:32.487Z,96374.69
2017-11-13T09:26:02.420Z,96374.91
2017-11-13T09:28:32.353Z,96374.69
2017-11-13T09:31:02.366Z,96365.21
2017-11-13T09:33:32.732Z,96395.57
2017-11-13T09:36:02.422Z,96398.56
2017-11-13T09:38:33.640Z,96393.14
2017-11-13T09:41:03.394Z,96384.04
2017-11-13T09:43:32.473Z,96402.95
2017-11-13T09:46:03.282Z,96401.36
2017-11-13T09:48:33.117Z,96394.19
2017-11-13T09:51:02.572Z,96390.20
2017-11-13T09:53:32.920Z,96390.59
2017-11-13T09:56:02.718Z,96393.20
2017-11-13T09:58:33.379Z,96383.93
2017-11-13T10:01:02.993Z,96389.06
2017-11-13T10:03:33.217Z,96382.27
2017-11-13T10:06:03.135Z,96390.34
2017-11-13T10:08:32.823Z,96391.11
2017-11-13T10:11:02.923Z,96399.80
2017-11-13T10:13:33.992Z,96391.23
2017-11-13T10:16:03.583Z,96382.87
2017-11-13T10:18:33.865Z,96377.83
2017-11-13T10:21:03.381Z,96367.83
2017-11-13T10:23:34.395Z,96377.17
2017-11-13T10:26:03.520Z,96390.45
2017-11-13T10:28:33.472Z,96390.80
2017-11-13T10:31:04.299Z,96391.03
2017-11-13T10:33:33.769Z,96392.14
2017-11-13T10:36:03.851Z,96402.80
2017-11-13T10:38:33.966Z,96401.59
2017-11-13T10:41:04.449Z,96408.91
2017-11-13T10:43:33.971Z,96410.34
2017-11-13T10:46:04.831Z,96417.80
2017-11-13T10:48:34.505Z,96423.58
2017-11-13T10:51:04.268Z,96422.28
2017-11-13T10:53:34.840Z,96443.67
2017-11-13T10:56:05.408Z,96439.60
2017-11-13T10:58:34.496Z,96459.25
2017-11-13T11:01:04.599Z,96453.38
2017-11-13T11:03:34.753Z,96460.34
2017-11-13T11:06:04.743Z,96467.54
2017-11-13T11:08:35.199Z,96469.91
2017-11-13T11:11:04.678Z,96481.10
2017-11-13T11:13:35.764Z,96479.59
2017-11-13T11:30:03.232Z,96474.58
2017-11-13T11:32:42.583Z,96477.33
2017-11-13T11:35:15.546Z,96474.98
2017-11-13T11:38:03.148Z,96473.16
2017-11-13T11:40:33.851Z,96476.91
2017-11-13T11:43:03.213Z,96468.46
2017-11-13T11:45:35.093Z,96482.10
2017-11-13T11:48:04.332Z,96489.31
2017-11-13T11:50:33.492Z,96493.94
2017-11-13T11:53:02.437Z,96501.79
2017-11-13T11:55:36.335Z,96490.67
2017-11-13T11:58:06.118Z,96492.30
2017-11-13T12:00:36.464Z,96493.17
2017-11-13T12:03:05.877Z,96497.66
2017-11-13T12:05:35.444Z,96489.74
2017-11-13T12:08:05.043Z,96497.12
2017-11-13T12:10:34.743Z,96493.88
2017-11-13T12:13:04.107Z,96498.03
2017-11-13T12:15:33.878Z,96489.97
2017-11-13T12:18:03.919Z,96496.46
2017-11-13T12:20:33.125Z,96498.77
2017-11-13T12:23:02.267Z,96495.87
2017-11-13T12:25:31.497Z,96507.64
2017-11-13T12:28:00.453Z,96510.40
2017-11-13T12:30:30.189Z,96506.59
2017-11-13T12:32:59.160Z,96511.91
2017-11-13T12:35:28.081Z,96520.94
2017-11-13T12:37:57.032Z,96532.37
2017-11-13T12:40:26.158Z,96541.44
2017-11-13T12:42:55.431Z,96540.45
2017-11-13T12:45:24.652Z,96543.39
2017-11-13T12:47:54.708Z,96534.59
2017-11-13T12:50:24.455Z,96543.13
2017-11-13T12:52:53.827Z,96548.28
2017-11-13T12:55:23.460Z,96536.73
2017-11-13T12:57:52.300Z,96554.55
2017-11-13T13:00:22.285Z,96556.81
2017-11-13T13:02:51.575Z,96549.31
2017-11-13T13:05:21.052Z,96559.11
2017-11-13T13:07:50.189Z,96565.88
2017-11-13T13:10:19.582Z,96554.70
2017-11-13T13:12:50.097Z,96557.48
2017-11-13T13:15:19.721Z,96556.02
2017-11-13T13:17:50.920Z,96566.56
2017-11-13T13:20:20.549Z,96581.55
2017-11-13T13:22:50.042Z,96589.13
2017-11-13T13:25:19.690Z,96601.44
2017-11-13T13:27:48.795Z,96606.45
2017-11-13T13:30:17.700Z,96607.37
2017-11-13T13:32:47.887Z,96622.58
2017-11-13T13:35:17.426Z,96628.53
2017-11-13T13:37:46.442Z,96637.91
2017-11-13T13:40:16.022Z,96641.64
2017-11-13T13:42:44.966Z,96637.65
2017-11-13T13:45:13.849Z,96638.08
2017-11-13T13:47:44.041Z,96638.02
2017-11-13T13:50:13.391Z,96645.45
2017-11-13T13:52:43.322Z,96640.55
2017-11-13T13:55:13.137Z,96652.77
2017-11-13T13:57:42.975Z,96651.22
2017-11-13T14:00:12.632Z,96656.30
2017-11-13T14:02:42.236Z,96667.45
2017-11-13T14:05:11.478Z,96667.91
2017-11-13T14:07:40.769Z,96675.78
2017-11-13T14:10:11.357Z,96680.08
2017-11-13T14:12:41.124Z,96688.09
2017-11-13T14:15:11.020Z,96694.30
2017-11-13T14:17:40.779Z,96686.83
2017-11-13T14:20:09.906Z,96680.94
2017-11-13T14:22:40.334Z,96675.77
2017-11-13T14:25:09.956Z,96683.14
2017-11-13T14:27:39.210Z,96690.76
2017-11-13T14:30:08.665Z,96696.61
2017-11-13T14:32:39.119Z,96686.84
2017-11-13T14:35:08.187Z,96685.62
2017-11-13T14:37:37.127Z,96696.86
2017-11-13T14:40:05.917Z,96698.21
2017-11-13T14:42:35.759Z,96694.56
2017-11-13T14:45:05.540Z,96701.89
2017-11-13T14:47:34.925Z,96712.80
2017-11-13T14:50:04.237Z,96702.38
2017-11-13T14:52:34.884Z,96690.78
2017-11-13T14:55:03.927Z,96696.41
2017-11-13T14:57:32.668Z,96693.58
2017-11-13T15:00:01.566Z,96693.02
2017-11-13T15:02:30.606Z,96691.46
2017-11-13T15:05:00.454Z,96676.44
2017-11-13T15:07:29.481Z,96679.52
2017-11-13T15:09:59.115Z,96675.73
2017-11-13T15:12:27.997Z,96672.85
2017-11-13T15:15:00.871Z,96658.81
2017-11-13T15:17:30.421Z,96682.53
2017-11-13T15:20:01.051Z,96693.28
2017-11-13T15:22:30.551Z,96704.12
2017-11-13T15:24:59.419Z,96694.75
2017-11-13T15:27:30.097Z,96701.73
2017-11-13T15:29:58.894Z,96706.70
2017-11-13T15:32:28.305Z,96716.52
2017-11-13T15:34:57.828Z,96725.87
2017-11-13T15:37:27.300Z,96734.60
2017-11-13T15:39:56.223Z,96733.45
2017-11-13T15:42:25.399Z,96742.89
2017-11-13T15:44:54.371Z,96743.27
2017-11-13T15:47:23.291Z,96749.05
2017-11-13T15:49:54.469Z,96747.02
2017-11-13T15:52:24.134Z,96742.89
2017-11-13T15:54:55.277Z,96751.16
2017-11-13T15:57:25.599Z,96757.84
2017-11-13T15:59:57.062Z,96757.66
2017-11-13T16:02:28.463Z,96767.13
2017-11-13T16:05:03.901Z,96771.50
2017-11-13T16:07:35.554Z,96786.63
2017-11-13T16:10:07.018Z,96780.41
2017-11-13T16:12:41.007Z,96798.30
2017-11-13T16:15:10.134Z,96784.13
2017-11-13T16:17:39.522Z,96799.75
2017-11-13T16:20:08.401Z,96808.88
2017-11-13T16:22:37.462Z,96806.63
2017-11-13T16:25:06.315Z,96812.45
2017-11-13T16:27:35.918Z,96810.41
2017-11-13T16:30:04.883Z,96820.61
2017-11-13T16:32:33.632Z,96823.27
2017-11-13T16:35:03.752Z,96831.62
2017-11-13T16:37:32.665Z,96841.09
2017-11-13T16:40:02.294Z,96835.41
2017-11-13T16:42:31.148Z,96832.84
2017-11-13T16:45:00.802Z,96825.26
2017-11-13T16:47:29.620Z,96833.00
2017-11-13T16:49:58.505Z,96835.02
2017-11-13T16:52:27.421Z,96815.25
2017-11-13T16:55:01.421Z,96832.06
2017-11-13T16:57:30.372Z,96834.02
2017-11-13T16:59:59.504Z,96835.95
2017-11-13T17:02:28.444Z,96845.24
2017-11-13T17:05:02.040Z,96870.83
2017-11-13T17:07:30.729Z,96874.93
2017-11-13T17:09:59.824Z,96882.13
2017-11-13T17:12:30.072Z,96878.38
2017-11-13T17:15:00.101Z,96909.40
2017-11-13T17:17:29.294Z,96907.92
2017-11-13T17:19:58.323Z,96916.02
2017-11-13T17:22:27.822Z,96918.88
2017-11-13T17:24:57.031Z,96927.08
2017-11-13T17:27:26.786Z,96926.45
2017-11-13T17:29:56.945Z,96941.14
2017-11-13T17:32:26.511Z,96923.84
2017-11-13T17:34:55.345Z,96928.85
2017-11-13T17:37:24.473Z,96941.92
2017-11-13T17:39:53.371Z,96948.41
2017-11-13T17:42:23.127Z,96952.10
2017-11-13T17:44:53.316Z,96966.61
2017-11-13T17:47:22.373Z,96967.47
2017-11-13T17:49:52.795Z,96976.22
2017-11-13T17:52:22.223Z,96970.62
2017-11-13T17:54:54.075Z,96990.63
2017-11-13T17:57:23.774Z,96992.91
2017-11-13T17:59:53.404Z,96996.45
2017-11-13T18:02:22.235Z,97000.66
2017-11-13T18:04:51.580Z,97001.97
2017-11-13T18:07:20.575Z,97010.91
2017-11-13T18:09:49.458Z,97027.95
2017-11-13T18:12:18.655Z,97031.89
2017-11-13T18:14:48.294Z,97036.05
2017-11-13T18:17:17.818Z,97043.03
2017-11-13T18:19:46.670Z,97044.97
2017-11-13T18:22:15.653Z,97050.70
2017-11-13T18:24:49.247Z,97051.56
2017-11-13T18:27:18.534Z,97054.75
2017-11-13T18:29:47.582Z,97060.53
2017-11-13T18:32:16.417Z,97064.73
2017-11-13T18:34:46.419Z,97081.97
2017-11-13T18:37:15.216Z,97067.70
2017-11-13T18:39:44.299Z,97069.97
2017-11-13T18:42:13.254Z,97068.62
2017-11-13T18:44:43.037Z,97070.83
2017-11-13T18:47:11.868Z,97073.41
2017-11-13T18:49:40.797Z,97067.70
2017-11-13T18:52:09.719Z,97074.98
2017-11-13T18:54:38.572Z,97080.91
2017-11-13T18:57:08.208Z,97076.81
2017-11-13T18:59:37.798Z,97071.59
2017-11-13T19:02:06.551Z,97075.40
2017-11-13T19:04:35.547Z,97085.94
2017-11-13T19:07:04.369Z,97089.34
2017-11-13T19:09:33.291Z,97100.25
2017-11-13T19:12:02.220Z,97101.77
2017-11-13T19:14:30.925Z,97102.22
2017-11-13T19:16:59.798Z,97105.98
2017-11-13T19:19:28.910Z,97123.07
2017-11-13T19:21:58.029Z,97126.20
2017-11-13T19:24:26.929Z,97135.34
2017-11-13T19:26:56.432Z,97131.73
2017-11-13T19:29:25.254Z,97131.22
2017-11-13T19:31:54.762Z,97127.40
2017-11-13T19:34:23.603Z,97125.28
2017-11-13T19:36:52.315Z,97122.44
2017-11-13T19:39:21.197Z,97125.94
2017-11-13T19:41:49.948Z,97120.24
2017-11-13T19:44:18.809Z,97130.84
2017-11-13T19:46:47.670Z,97124.00
2017-11-13T19:49:16.550Z,97121.38
2017-11-13T19:51:45.940Z,97124.06
2017-11-13T19:54:15.149Z,97126.52
2017-11-13T19:56:44.371Z,97116.55
2017-11-13T19:59:13.946Z,97121.52
2017-11-13T20:01:43.064Z,97117.59
2017-11-13T20:04:12.339Z,97119.52
2017-11-13T20:06:41.545Z,97111.53
2017-11-13T20:09:10.898Z,97104.50
2017-11-13T20:11:39.951Z,97118.05
2017-11-13T20:14:10.052Z,97109.81
2017-11-13T20:16:38.870Z,97112.98
2017-11-13T20:19:07.949Z,97109.55
2017-11-13T20:21:36.772Z,97110.21
2017-11-13T20:24:06.615Z,97111.03
2017-11-13T20:26:36.331Z,97096.36
2017-11-13T20:29:05.278Z,97099.25
2017-11-13T20:31:34.535Z,97111.41
2017-11-13T20:34:03.741Z,97125.93
2017-11-13T20:36:32.569Z,97137.66
2017-11-13T20:39:01.470Z,97135.70
2017-11-13T20:41:30.595Z,97132.61
2017-11-13T20:44:00.369Z,97140.79
2017-11-13T20:46:29.310Z,97144.08
2017-11-13T20:48:59.608Z,97155.03
2017-11-13T20:51:29.193Z,97164.05
2017-11-13T20:53:58.485Z,97158.06
2017-11-13T20:56:28.191Z,97169.30
2017-11-13T20:58:57.096Z,97155.99
2017-11-13T21:01:26.074Z,97150.09
2017-11-13T21:03:55.924Z,97150.36
2017-11-13T21:06:26.620Z,97148.92
2017-11-13T21:08:55.995Z,97148.86
2017-11-13T21:11:24.905Z,97142.23
2017-11-13T21:13:54.286Z,97143.07
2017-11-13T21:16:23.084Z,97131.91
2017-11-13T21:18:52.145Z,97141.08
2017-11-13T21:21:21.327Z,97126.88
2017-11-13T21:23:50.836Z,97130.72
2017-11-13T21:26:20.095Z,97136.20
2017-11-13T21:28:50.233Z,97147.08
2017-11-13T21:31:19.680Z,97144.99
2017-11-13T21:33:49.386Z,97145.97
2017-11-13T21:36:18.747Z,97148.36
2017-11-13T21:38:47.522Z,97156.93
2017-11-13T21:41:17.134Z,97152.34
2017-11-13T21:43:46.160Z,97150.95
2017-11-13T21:46:15.176Z,97171.45
2017-11-13T21:48:44.457Z,97174.91
2017-11-13T21:51:14.233Z,97188.80
2017-11-13T21:53:43.884Z,97205.03
2017-11-13T21:56:14.000Z,97220.30
2017-11-13T21:58:42.826Z,97213.63
2017-11-13T22:01:12.223Z,97211.80
2017-11-13T22:03:41.155Z,97211.25
2017-11-13T22:06:11.022Z,97205.17
2017-11-13T22:08:39.867Z,97209.70
2017-11-13T22:11:08.855Z,97201.53
2017-11-13T22:13:39.099Z,97203.18
2017-11-13T22:16:09.886Z,97204.91
2017-11-13T22:18:39.711Z,97208.07
2017-11-13T22:21:08.799Z,97210.81
2017-11-13T22:23:37.568Z,97217.44
2017-11-13T22:26:07.226Z,97231.01
2017-11-13T22:28:37.117Z,97242.94
2017-11-13T22:31:06.228Z,97252.08
2017-11-13T22:33:35.347Z,97261.50
2017-11-13T22:36:04.829Z,97258.06
2017-11-13T22:38:33.777Z,97260.36
2017-11-13T22:41:02.673Z,97260.24
2017-11-13T22:43:32.039Z,97263.22
2017-11-13T22:46:00.941Z,97270.79
2017-11-13T22:48:30.643Z,97266.88
2017-11-13T22:50:59.829Z,97268.51
2017-11-13T22:53:31.488Z,97259.50
2017-11-13T22:56:01.365Z,97259.34
2017-11-13T22:58:30.802Z,97269.98
2017-11-13T23:01:00.284Z,97273.16
2017-11-13T23:03:29.768Z,97278.28
2017-11-13T23:06:00.018Z,97272.41
2017-11-13T23:08:29.155Z,97264.42
2017-11-13T23:10:58.464Z,97272.66
2017-11-13T23:13:28.287Z,97268.84
2017-11-13T23:15:57.928Z,97273.63
2017-11-13T23:18:26.905Z,97282.88
2017-11-13T23:20:57.526Z,97280.89
2017-11-13T23:23:28.996Z,97290.84
2017-11-13T23:25:58.093Z,97291.92
2017-11-13T23:28:27.192Z,97296.81
2017-11-13T23:30:57.241Z,97303.27
2017-11-13T23:33:27.968Z,97308.52
2017-11-13T23:35:57.577Z,97313.16
2017-11-13T23:38:27.341Z,97297.22
2017-11-13T23:40:57.265Z,97308.39
2017-11-13T23:43:27.242Z,97316.83
2017-11-13T23:45:56.992Z,97326.62
2017-11-13T23:48:25.778Z,97335.50
2017-11-13T23:50:54.543Z,97322.05
2017-11-13T23:53:23.537Z,97329.39
2017-11-13T23:55:52.717Z,97330.70
2017-11-13T23:58:22.234Z,97342.39
